Time;durP1;ratioP1;P1;durP2;ratioP2;P2;SDS_P1;SDS_P2;PMS_P1;PMS_P2;Temp;Humidity;BMP_temperature;BMP_pressure;BME280_temperature;BME280_humidity;BME280_pressure;Samples;Min_cycle;Max_cycle;Signal;HPM_P1;HPM_P2
2022/05/20 00:00:30;;;;;;;;;4.00;2.00;;;;;19.39;52.59;101129.28;4974088;28;45440;-74
2022/05/20 00:02:56;;;;;;;;;5.75;2.25;;;;;19.38;52.48;101133.78;4974013;28;45280;-74
2022/05/20 00:05:22;;;;;;;;;5.00;4.00;;;;;19.35;52.38;101133.13;4976768;28;45265;-76
2022/05/20 00:07:47;;;;;;;;;2.50;2.50;;;;;19.28;52.12;101130.03;4974822;28;46191;-74
2022/05/20 00:10:15;;;;;;;;;3.25;2.00;;;;;19.30;52.46;101128.13;4974654;28;45793;-74
2022/05/20 00:12:40;;;;;;;;;3.00;3.00;;;;;19.28;51.92;101122.03;4974031;28;45368;-73
2022/05/20 00:15:08;;;;;;;;;5.75;2.75;;;;;19.30;52.31;101130.78;4972929;28;45424;-74
2022/05/20 00:17:33;;;;;;;;;2.00;0.00;;;;;19.18;52.43;101115.63;4974108;28;46143;-75
2022/05/20 00:20:00;;;;;;;;;4.50;3.00;;;;;19.17;51.71;101108.59;4974720;28;45380;-69
2022/05/20 00:22:25;;;;;;;;;2.50;2.50;;;;;19.15;51.97;101102.50;4975663;28;45307;-70
2022/05/20 00:27:34;;;;;;;;;3.00;3.00;;;;;19.16;51.42;101109.53;4975021;28;45414;-65
2022/05/20 00:30:00;;;;;;;;;2.50;2.00;;;;;19.14;51.19;101106.97;4973576;28;45282;-66
2022/05/20 00:32:25;;;;;;;;;2.00;2.00;;;;;19.09;51.22;101109.09;4973824;28;45253;-66
2022/05/20 00:34:50;;;;;;;;;3.00;3.00;;;;;18.96;50.89;101096.56;4971791;28;45521;-66
2022/05/20 00:37:16;;;;;;;;;2.75;2.75;;;;;18.99;51.16;101106.19;4971554;28;46662;-65
2022/05/20 00:39:41;;;;;;;;;1.00;1.00;;;;;18.96;50.48;101107.22;4971656;28;45392;-65
2022/05/20 00:42:16;;;;;;;;;1.75;1.75;;;;;18.96;49.98;101107.22;4972044;28;45379;-66
2022/05/20 00:44:41;;;;;;;;;7.00;5.00;;;;;18.93;50.39;101091.44;4973420;28;45253;-65
2022/05/20 00:47:07;;;;;;;;;1.00;1.00;;;;;19.04;49.23;101109.38;4972756;28;46255;-70
2022/05/20 00:49:35;;;;;;;;;0.75;0.75;;;;;19.10;48.81;101108.13;4974705;28;45410;-69
2022/05/20 00:52:03;;;;;;;;;1.00;1.00;;;;;19.17;48.12;101104.09;4973526;28;45393;-69
2022/05/20 00:54:35;;;;;;;;;0.50;0.50;;;;;19.16;48.01;101104.22;4973853;28;45658;-69
2022/05/20 00:57:17;;;;;;;;;2.50;1.00;;;;;19.19;47.88;101096.84;4976915;28;46084;-70
2022/05/20 00:59:50;;;;;;;;;2.25;1.00;;;;;19.25;47.90;101103.56;4975925;28;45267;-69
2022/05/20 01:02:19;;;;;;;;;2.75;1.00;;;;;19.30;48.04;101096.09;4971367;28;45797;-69
2022/05/20 01:04:45;;;;;;;;;1.00;1.00;;;;;19.31;48.06;101099.63;4970818;28;45564;-70
2022/05/20 01:07:12;;;;;;;;;1.75;1.00;;;;;19.30;48.32;101096.09;4970940;28;45743;-70
2022/05/20 01:09:38;;;;;;;;;2.00;2.00;;;;;19.33;48.46;101093.22;4972778;28;45436;-70
2022/05/20 01:12:05;;;;;;;;;1.00;1.00;;;;;19.34;48.27;101083.41;4973579;28;45506;-71
2022/05/20 01:14:30;;;;;;;;;1.00;1.00;;;;;19.49;48.15;101086.81;4972139;28;45536;-69
2022/05/20 01:16:56;;;;;;;;;5.00;5.00;;;;;19.51;48.45;101080.41;4971380;28;45413;-69
2022/05/20 01:19:35;;;;;;;;;2.00;1.00;;;;;19.55;48.15;101073.06;4972965;28;45292;-68
2022/05/20 01:22:01;;;;;;;;;2.00;2.00;;;;;19.54;47.94;101074.84;4973275;28;45357;-69
2022/05/20 01:24:27;;;;;;;;;3.50;1.25;;;;;19.54;47.97;101060.66;4972791;28;46194;-68
2022/05/20 01:26:52;;;;;;;;;1.00;1.00;;;;;19.52;47.57;101046.59;4972195;28;46201;-69
2022/05/20 01:29:18;;;;;;;;;2.00;2.00;;;;;19.49;47.87;101049.47;4973439;28;45383;-71
2022/05/20 01:31:44;;;;;;;;;1.00;1.00;;;;;19.47;47.91;101051.41;4971541;28;45369;-71
2022/05/20 01:34:09;;;;;;;;;1.00;1.00;;;;;19.41;47.85;101050.00;4974060;28;45641;-69
2022/05/20 01:36:34;;;;;;;;;1.00;1.00;;;;;19.41;48.11;101047.34;4972127;28;46234;-68
2022/05/20 01:39:00;;;;;;;;;2.00;2.00;;;;;19.44;47.95;101043.59;4972119;28;45279;-69
2022/05/20 01:41:48;;;;;;;;;1.00;1.00;;;;;19.42;47.84;101028.56;4972125;28;45222;-70
2022/05/20 01:44:23;;;;;;;;;3.00;1.00;;;;;19.32;48.33;101022.19;4969922;28;45165;-69
2022/05/20 01:46:58;;;;;;;;;1.00;1.00;;;;;19.24;48.16;101019.19;4971436;28;46392;-69
2022/05/20 01:49:49;;;;;;;;;1.00;1.00;;;;;19.17;48.31;101024.09;4972369;28;45194;-68
2022/05/20 01:52:35;;;;;;;;;1.25;1.00;;;;;19.18;48.47;101027.63;4972879;28;45400;-69
2022/05/20 01:55:18;;;;;;;;;1.25;1.25;;;;;19.12;48.86;101011.09;4973819;28;45380;-69
2022/05/20 01:57:56;;;;;;;;;1.00;1.00;;;;;19.05;49.41;101015.13;4972300;28;46042;-69
2022/05/20 02:00:26;;;;;;;;;3.50;2.00;;;;;19.00;49.60;101017.25;4972013;28;45181;-70
2022/05/20 02:03:17;;;;;;;;;1.75;1.75;;;;;18.97;49.46;101028.13;4970508;28;45311;-70
2022/05/20 02:06:11;;;;;;;;;2.50;1.50;;;;;18.90;49.63;101005.47;4972395;28;45327;-69
2022/05/20 02:08:45;;;;;;;;;2.00;2.00;;;;;18.96;49.61;101005.06;4972227;28;45308;-69
2022/05/20 02:11:18;;;;;;;;;1.00;1.00;;;;;18.89;50.03;100995.78;4973957;28;45377;-72
2022/05/20 02:13:53;;;;;;;;;2.50;2.50;;;;;18.81;50.35;101005.16;4972093;28;45415;-70
2022/05/20 02:16:26;;;;;;;;;2.00;2.00;;;;;18.76;50.44;101004.63;4972564;28;45270;-70
2022/05/20 02:18:58;;;;;;;;;1.00;1.00;;;;;18.76;50.90;101004.63;4971701;28;45422;-69
2022/05/20 02:21:27;;;;;;;;;1.00;1.00;;;;;18.71;50.78;100988.09;4974196;28;45241;-69
2022/05/20 02:24:03;;;;;;;;;2.00;2.00;;;;;18.66;51.16;100979.56;4973188;28;45328;-69
2022/05/20 02:26:33;;;;;;;;;2.25;2.25;;;;;18.63;51.26;100985.97;4972470;28;45278;-69
2022/05/20 02:29:03;;;;;;;;;1.00;1.00;;;;;18.62;50.97;100986.94;4971215;28;47333;-70
2022/05/20 02:31:35;;;;;;;;;3.00;3.00;;;;;18.62;51.19;100986.06;4972376;28;45342;-69
2022/05/20 02:34:01;;;;;;;;;0.75;0.00;;;;;18.66;51.84;100993.75;4973698;28;45421;-70
2022/05/20 02:36:33;;;;;;;;;2.00;2.00;;;;;18.65;51.49;100988.50;4971574;28;46374;-69
2022/05/20 02:38:59;;;;;;;;;1.50;1.50;;;;;18.75;51.11;100991.41;4971316;28;46196;-69
2022/05/20 02:41:25;;;;;;;;;2.25;2.25;;;;;18.77;51.51;100981.50;4971720;28;45463;-69
2022/05/20 02:43:50;;;;;;;;;2.50;2.00;;;;;18.76;51.49;100977.97;4972238;28;45398;-69
2022/05/20 02:46:16;;;;;;;;;1.00;1.00;;;;;18.69;51.39;100976.69;4972328;28;45556;-70
2022/05/20 02:48:41;;;;;;;;;2.75;2.75;;;;;18.75;51.76;100980.75;4971751;28;45308;-69
2022/05/20 02:51:06;;;;;;;;;3.25;2.00;;;;;18.75;51.69;100970.94;4971037;28;45449;-69
2022/05/20 02:53:32;;;;;;;;;1.25;1.25;;;;;18.76;52.12;100969.13;4972787;28;45376;-70
2022/05/20 02:55:57;;;;;;;;;2.75;2.25;;;;;18.72;51.89;100971.16;4973806;28;45535;-70
2022/05/20 03:04:12;;;;;;;;;1.00;1.00;;;;;18.82;52.14;100969.56;4974325;28;45286;-69
2022/05/20 03:06:43;;;;;;;;;2.75;2.75;;;;;18.82;51.64;100966.06;4974577;28;45355;-68
2022/05/20 03:09:12;;;;;;;;;4.00;2.00;;;;;18.71;51.41;100957.94;4974405;28;45428;-69
2022/05/20 03:11:41;;;;;;;;;1.00;1.00;;;;;18.78;51.19;100985.88;4975231;28;45260;-69
2022/05/20 03:14:09;;;;;;;;;2.00;2.00;;;;;18.74;51.59;100984.38;4975183;28;45391;-68
2022/05/20 03:16:37;;;;;;;;;4.00;2.75;;;;;18.72;51.70;100964.97;4974230;28;45188;-69
2022/05/20 03:19:04;;;;;;;;;1.50;1.50;;;;;18.64;51.91;100957.50;4973941;28;46072;-68
2022/05/20 03:21:30;;;;;;;;;3.50;2.75;;;;;18.67;51.65;100971.47;4972556;28;45376;-68
2022/05/20 03:23:55;;;;;;;;;1.75;1.75;;;;;18.66;52.02;100987.56;4974019;28;45444;-70
2022/05/20 03:26:21;;;;;;;;;2.00;2.00;;;;;18.61;51.93;100981.69;4973956;28;45342;-69
2022/05/20 03:28:47;;;;;;;;;2.00;2.00;;;;;18.56;52.22;100971.38;4973765;28;46514;-69
2022/05/20 03:31:13;;;;;;;;;1.75;1.75;;;;;18.48;52.39;100966.53;4974420;28;45389;-69
2022/05/20 03:33:40;;;;;;;;;2.00;2.00;;;;;18.48;52.51;100984.31;4974626;28;45382;-69
2022/05/20 03:36:06;;;;;;;;;3.50;2.50;;;;;18.39;52.70;100975.16;4974081;28;45416;-70
2022/05/20 03:38:32;;;;;;;;;1.75;1.75;;;;;18.37;52.92;100972.56;4974058;28;45991;-70
2022/05/20 03:40:58;;;;;;;;;5.25;3.00;;;;;18.29;52.86;100961.59;4975095;28;45324;-70
2022/05/20 03:43:24;;;;;;;;;2.00;2.00;;;;;18.33;52.96;100971.06;4975436;28;45351;-69
2022/05/20 03:45:51;;;;;;;;;3.25;2.00;;;;;18.31;53.03;100961.50;4975723;28;45644;-67
2022/05/20 03:48:17;;;;;;;;;2.00;2.00;;;;;18.24;53.08;100953.91;4974984;28;45263;-69
2022/05/20 03:50:42;;;;;;;;;3.25;3.25;;;;;18.24;53.41;100959.25;4973509;28;45230;-70
2022/05/20 03:53:07;;;;;;;;;3.75;3.75;;;;;18.22;53.78;100954.97;4973986;28;45330;-69
2022/05/20 03:55:33;;;;;;;;;2.50;2.50;;;;;18.19;53.63;100948.06;4972683;28;45470;-68
2022/05/20 03:57:58;;;;;;;;;5.00;4.00;;;;;18.17;54.01;100936.66;4973478;28;46329;-69
2022/05/20 04:00:23;;;;;;;;;2.50;2.50;;;;;18.14;54.05;100934.19;4973861;28;45264;-68
2022/05/20 04:02:49;;;;;;;;;3.00;2.25;;;;;18.13;53.96;100947.59;4973843;28;45183;-70
2022/05/20 04:05:14;;;;;;;;;5.25;3.25;;;;;18.14;54.27;100938.66;4974035;28;45252;-69
2022/05/20 04:07:39;;;;;;;;;4.00;2.50;;;;;18.08;54.18;100930.13;4973242;28;45254;-70
2022/05/20 04:10:07;;;;;;;;;3.50;3.25;;;;;18.07;54.51;100939.06;4973236;28;45269;-69
2022/05/20 04:12:40;;;;;;;;;2.00;2.00;;;;;18.09;54.51;100942.47;4973804;27;45304;-69
2022/05/20 04:15:08;;;;;;;;;5.00;4.00;;;;;18.09;54.65;100944.28;4974183;28;45340;-70
2022/05/20 04:17:34;;;;;;;;;4.00;4.00;;;;;18.12;54.81;100932.56;4971610;28;46305;-69
2022/05/20 04:20:00;;;;;;;;;3.00;3.00;;;;;18.12;54.75;100927.25;4973141;28;45380;-69
2022/05/20 04:22:32;;;;;;;;;4.25;4.25;;;;;18.15;54.95;100933.22;4971955;28;45330;-69
2022/05/20 04:24:58;;;;;;;;;6.00;4.75;;;;;18.15;54.70;100930.56;4973407;28;45385;-70
2022/05/20 04:27:24;;;;;;;;;4.00;4.00;;;;;18.23;55.16;100938.91;4974454;28;46485;-69
2022/05/20 04:29:50;;;;;;;;;7.25;5.25;;;;;18.28;55.07;100941.25;4974519;28;45365;-69
2022/05/20 04:32:15;;;;;;;;;4.25;4.25;;;;;18.33;54.99;100954.25;4973589;28;45409;-70
2022/05/20 04:34:41;;;;;;;;;4.75;3.00;;;;;18.38;55.09;100946.81;4975082;28;45230;-70
2022/05/20 04:37:06;;;;;;;;;3.75;3.75;;;;;18.22;54.93;100915.91;4973044;28;45262;-70
2022/05/20 04:39:32;;;;;;;;;4.50;4.50;;;;;18.53;55.04;100951.09;4972891;28;45208;-69
2022/05/20 04:47:29;;;;;;;;;2.25;2.25;;;;;18.80;54.82;100950.16;4972889;28;45393;-69
2022/05/20 04:49:55;;;;;;;;;4.75;4.75;;;;;18.86;55.07;100948.88;4972953;28;45223;-69
2022/05/20 04:52:21;;;;;;;;;3.50;3.50;;;;;19.04;54.48;100960.09;4972950;28;45443;-70
2022/05/20 04:54:49;;;;;;;;;5.25;5.00;;;;;19.15;54.83;100958.50;4973442;28;45373;-68
2022/05/20 04:57:26;;;;;;;;;4.25;4.25;;;;;19.33;54.34;100962.53;4974073;28;45413;-69
2022/05/20 04:59:55;;;;;;;;;8.50;5.75;;;;;19.46;54.28;100981.16;4972859;28;45315;-69
2022/05/20 05:02:21;;;;;;;;;5.50;4.25;;;;;19.58;53.83;100984.78;4972910;28;45407;-70
2022/05/20 05:04:47;;;;;;;;;5.00;5.00;;;;;19.60;53.76;100966.84;4974036;28;45288;-69
2022/05/20 05:07:12;;;;;;;;;5.75;4.00;;;;;19.70;53.74;100975.03;4972928;28;46170;-69
2022/05/20 05:09:39;;;;;;;;;7.50;6.00;;;;;19.72;54.03;100978.47;4972529;28;45470;-69
2022/05/20 05:12:06;;;;;;;;;6.50;4.75;;;;;19.75;53.68;100982.69;4973021;28;45392;-69
2022/05/20 05:14:36;;;;;;;;;7.50;3.25;;;;;19.76;54.20;100984.41;4973672;28;45342;-69
2022/05/20 05:17:04;;;;;;;;;5.50;5.50;;;;;19.76;53.38;100976.41;4970934;28;48078;-70
2022/05/20 05:19:30;;;;;;;;;3.50;3.50;;;;;19.78;53.83;100987.81;4971826;28;45375;-70
2022/05/20 05:21:55;;;;;;;;;6.00;6.00;;;;;19.80;54.34;100972.53;4972260;28;45453;-70
2022/05/20 05:24:21;;;;;;;;;10.00;7.75;;;;;19.82;53.71;100976.81;4972439;28;45581;-70
2022/05/20 05:26:46;;;;;;;;;7.25;7.25;;;;;19.85;53.75;100975.72;4973347;28;46120;-68
2022/05/20 05:29:12;;;;;;;;;8.50;7.00;;;;;19.87;54.26;100971.13;4971999;28;45292;-69
2022/05/20 05:31:38;;;;;;;;;7.50;6.25;;;;;19.91;53.81;100963.78;4972662;28;45407;-70
2022/05/20 05:34:03;;;;;;;;;5.25;4.75;;;;;19.89;54.23;100957.69;4972587;28;45364;-69
2022/05/20 05:36:29;;;;;;;;;9.00;6.25;;;;;19.91;53.99;100961.13;4972386;28;46093;-70
2022/05/20 05:38:55;;;;;;;;;7.00;5.00;;;;;19.91;54.19;100964.63;4972347;28;45407;-69
2022/05/20 05:41:21;;;;;;;;;6.00;5.25;;;;;19.90;54.21;100967.44;4972276;28;45408;-69
2022/05/20 05:43:46;;;;;;;;;9.00;7.00;;;;;19.88;54.21;100955.97;4972963;28;45339;-68
2022/05/20 05:46:12;;;;;;;;;7.75;6.00;;;;;19.79;54.09;100939.69;4972272;28;45503;-69
2022/05/20 05:48:37;;;;;;;;;6.00;6.00;;;;;19.83;54.57;100941.16;4972124;28;45319;-68
2022/05/20 05:51:03;;;;;;;;;8.75;8.75;;;;;19.78;54.21;100931.78;4972191;28;45439;-70
2022/05/20 05:53:28;;;;;;;;;10.75;10.00;;;;;19.72;54.13;100919.75;4972331;28;45339;-69
2022/05/20 05:55:57;;;;;;;;;7.75;7.75;;;;;19.79;54.29;100928.13;4972735;28;47124;-70
2022/05/20 05:58:22;;;;;;;;;8.50;6.75;;;;;19.74;54.37;100909.81;4972054;28;45263;-70
2022/05/20 06:00:48;;;;;;;;;5.00;4.75;;;;;19.68;55.12;100911.09;4973613;28;45220;-69
2022/05/20 06:03:15;;;;;;;;;5.25;5.25;;;;;19.64;55.33;100917.63;4979144;28;45547;-70
2022/05/20 06:05:42;;;;;;;;;8.25;8.00;;;;;19.59;55.81;100926.91;4971048;28;45422;-70
2022/05/20 06:08:07;;;;;;;;;7.50;6.50;;;;;19.61;56.51;100938.31;4972277;28;45325;-70
2022/05/20 06:10:33;;;;;;;;;7.50;7.50;;;;;19.58;57.22;100943.88;4972426;28;45303;-70
2022/05/20 06:12:58;;;;;;;;;6.00;6.00;;;;;19.63;56.90;100957.78;4972554;28;45213;-69
2022/05/20 06:15:23;;;;;;;;;6.00;6.00;;;;;19.63;57.06;100968.44;4972533;28;45997;-70
2022/05/20 06:17:52;;;;;;;;;8.50;8.50;;;;;19.60;57.76;100973.97;4973122;28;45377;-70
2022/05/20 06:20:21;;;;;;;;;9.00;9.00;;;;;19.60;58.54;100964.19;4972973;28;45335;-70
2022/05/20 06:22:47;;;;;;;;;10.75;8.75;;;;;19.57;59.86;100956.41;4974817;28;45543;-70
2022/05/20 06:25:13;;;;;;;;;9.00;6.00;;;;;19.55;59.61;100934.31;4974238;28;45331;-70
2022/05/20 06:27:39;;;;;;;;;8.50;8.25;;;;;19.54;60.51;100930.78;4971914;28;45309;-69
2022/05/20 06:30:08;;;;;;;;;9.00;9.00;;;;;19.52;60.93;100910.53;4974177;28;45319;-69
2022/05/20 06:32:34;;;;;;;;;9.00;9.00;;;;;19.49;61.44;100881.41;4973201;28;45543;-72
2022/05/20 06:40:56;;;;;;;;;9.25;8.50;;;;;19.24;62.84;100805.84;5008382;28;45280;-70
2022/05/20 06:43:21;;;;;;;;;7.00;6.50;;;;;19.19;61.79;100832.00;4975968;28;45299;-68
2022/05/20 06:45:52;;;;;;;;;8.50;8.50;;;;;19.22;61.91;100858.44;4975993;28;46201;-70
2022/05/20 06:48:18;;;;;;;;;14.50;9.25;;;;;19.11;62.33;100883.22;4975209;28;45363;-69
2022/05/20 06:50:44;;;;;;;;;8.00;7.75;;;;;19.03;62.38;100881.06;4974685;28;45403;-69
2022/05/20 06:53:10;;;;;;;;;13.00;12.25;;;;;18.97;63.01;100886.84;4974921;28;45424;-68
2022/05/20 06:55:37;;;;;;;;;14.50;14.00;;;;;18.95;62.90;100846.09;4974539;28;46149;-71
2022/05/20 06:58:02;;;;;;;;;8.25;8.25;;;;;19.02;63.94;100794.06;4975495;28;45357;-76
2022/05/20 07:00:28;;;;;;;;;9.50;8.75;;;;;19.06;63.47;100782.22;4974261;28;45382;-76
2022/05/20 07:02:54;;;;;;;;;9.00;9.00;;;;;19.07;63.28;100711.94;4974514;28;45264;-74
2022/05/20 07:05:20;;;;;;;;;10.25;10.25;;;;;19.15;63.44;100692.72;4973593;28;45473;-75
2022/05/20 07:07:46;;;;;;;;;13.25;11.50;;;;;19.20;63.81;100687.88;4974407;28;45416;-78
2022/05/20 07:10:14;;;;;;;;;12.75;12.75;;;;;19.30;64.20;100676.53;4977081;28;45293;-72
2022/05/20 07:12:40;;;;;;;;;12.00;11.50;;;;;19.52;64.39;100675.75;4976054;28;45350;-69
2022/05/20 07:15:07;;;;;;;;;12.00;10.50;;;;;19.65;64.28;100663.16;4978326;28;45401;-70
2022/05/20 07:17:32;;;;;;;;;10.75;10.75;;;;;19.88;64.34;100675.69;4994218;28;45461;-74
2022/05/20 07:19:58;;;;;;;;;10.75;10.75;;;;;20.12;63.59;100683.59;4977076;28;45461;-75
2022/05/20 07:22:24;;;;;;;;;11.00;11.00;;;;;20.34;62.61;100685.44;5059882;28;45153;-78
2022/05/20 07:24:50;;;;;;;;;10.75;10.75;;;;;20.56;62.11;100689.91;5065521;28;45731;-84
2022/05/20 07:27:16;;;;;;;;;14.50;14.25;;;;;20.82;61.71;100704.81;5038360;28;45366;-80
2022/05/20 07:29:42;;;;;;;;;9.75;9.75;;;;;21.01;60.83;100734.44;5057869;28;45506;-81
2022/05/20 07:32:08;;;;;;;;;14.25;12.50;;;;;20.87;60.82;100699.97;5057298;28;45590;-78
2022/05/20 07:34:34;;;;;;;;;12.25;11.25;;;;;21.01;59.98;100696.13;5068691;27;46017;-76
2022/05/20 07:36:59;;;;;;;;;10.25;10.25;;;;;21.17;60.33;100711.75;5054456;28;45454;-71
2022/05/20 07:39:25;;;;;;;;;11.00;11.00;;;;;21.24;61.02;100729.00;5055227;28;45438;-71
2022/05/20 07:41:51;;;;;;;;;12.75;12.75;;;;;21.27;60.67;100743.97;5038434;28;45423;-69
2022/05/20 07:44:17;;;;;;;;;11.00;10.25;;;;;21.27;60.73;100744.78;5038712;28;47548;-71
2022/05/20 07:46:43;;;;;;;;;13.25;10.75;;;;;21.12;60.64;100732.69;5054279;28;45386;-70
2022/05/20 07:49:08;;;;;;;;;12.25;8.25;;;;;21.26;60.11;100785.88;5054448;28;45459;-71
2022/05/20 07:51:37;;;;;;;;;10.50;10.50;;;;;21.13;60.74;100819.97;5054376;28;45554;-75
2022/05/20 07:54:08;;;;;;;;;19.00;16.25;;;;;21.08;61.44;100817.66;5055227;28;46566;-68
2022/05/20 07:56:39;;;;;;;;;15.50;14.25;;;;;20.98;62.02;100835.41;5068722;28;45486;-68
2022/05/20 07:59:09;;;;;;;;;15.75;15.75;;;;;20.81;62.27;100904.47;5064144;28;45540;-77
2022/05/20 08:01:39;;;;;;;;;11.75;11.25;;;;;20.74;63.63;100857.78;5041985;28;45524;-67
2022/05/20 08:05:01;;;;;;;;;12.50;12.50;;;;;20.58;67.26;100834.94;5076250;27;46453;-66
2022/05/20 08:07:04;;;;;;;;;19.50;14.50;;;;;20.49;67.54;100808.94;5074444;27;45336;-67
2022/05/20 08:09:29;;;;;;;;;10.75;9.25;;;;;20.38;65.46;100823.13;5076277;27;45383;-66
2022/05/20 08:11:57;;;;;;;;;17.50;17.50;;;;;20.23;66.17;100793.13;5075359;27;45421;-66
2022/05/20 08:14:23;;;;;;;;;17.50;16.00;;;;;20.19;67.91;100794.34;5075813;27;45426;-67
2022/05/20 08:16:49;;;;;;;;;18.25;15.00;;;;;20.14;65.88;100792.00;5074208;27;45498;-67
2022/05/20 08:19:14;;;;;;;;;16.50;16.25;;;;;20.09;66.67;100790.66;5076622;27;45346;-67
2022/05/20 08:21:39;;;;;;;;;20.25;19.00;;;;;20.07;66.94;100788.13;5075732;27;45341;-66
2022/05/20 08:24:05;;;;;;;;;17.50;13.75;;;;;20.04;67.29;100782.16;5075748;27;46102;-69
2022/05/20 08:26:31;;;;;;;;;25.50;18.75;;;;;20.04;67.48;100787.50;5076055;27;45512;-67
2022/05/20 08:28:56;;;;;;;;;27.00;22.00;;;;;20.05;67.61;100776.72;5074986;28;45374;-66
2022/05/20 08:31:22;;;;;;;;;16.00;15.50;;;;;20.06;66.96;100765.06;5076429;27;45252;-67
2022/05/20 08:33:47;;;;;;;;;17.50;17.50;;;;;20.09;67.53;100780.84;5074710;28;47893;-66
2022/05/20 08:36:13;;;;;;;;;16.75;15.25;;;;;20.13;67.32;100794.78;5074681;28;45216;-66
2022/05/20 08:38:40;;;;;;;;;17.00;17.00;;;;;20.14;66.57;100799.16;5074470;28;45443;-68
2022/05/20 08:41:05;;;;;;;;;15.75;15.75;;;;;20.19;67.12;100788.13;5076075;27;45246;-67
2022/05/20 08:43:33;;;;;;;;;19.75;17.00;;;;;20.28;67.23;100839.03;5075622;27;46664;-66
2022/05/20 08:46:01;;;;;;;;;15.75;15.75;;;;;20.23;67.07;100878.59;5076027;27;45419;-66
2022/05/20 08:48:27;;;;;;;;;17.75;15.50;;;;;20.16;67.53;100906.75;5076428;27;45429;-66
2022/05/20 08:50:55;;;;;;;;;20.50;18.25;;;;;20.06;67.43;100976.00;5077819;27;45369;-66
2022/05/20 08:53:30;;;;;;;;;22.75;20.50;;;;;19.93;67.93;100973.38;5074525;27;46141;-68
2022/05/20 08:56:12;;;;;;;;;32.75;28.50;;;;;19.94;75.99;100856.78;5075873;27;45306;-68
2022/05/20 08:58:42;;;;;;;;;23.50;22.25;;;;;19.44;100.00;100854.22;5076161;27;45382;-68
2022/05/20 09:01:08;;;;;;;;;34.75;26.75;;;;;19.08;100.00;100814.13;5076170;27;45385;-66
2022/05/20 09:03:34;;;;;;;;;26.50;23.50;;;;;18.86;100.00;100822.75;5074079;28;47949;-68
2022/05/20 09:06:09;;;;;;;;;22.00;21.25;;;;;18.76;100.00;100825.25;5075499;27;45441;-67
2022/05/20 09:08:34;;;;;;;;;34.75;32.00;;;;;18.77;100.00;100800.31;5075729;28;45355;-67
2022/05/20 09:11:02;;;;;;;;;35.50;30.50;;;;;18.79;100.00;100803.72;5075911;27;45616;-68
2022/05/20 09:16:25;;;;;;;;;36.75;29.75;;;;;18.63;100.00;100815.47;5075316;28;45325;-66
2022/05/20 09:19:08;;;;;;;;;34.75;29.50;;;;;18.68;100.00;100815.13;5075710;28;45229;-66
2022/05/20 09:21:38;;;;;;;;;38.25;32.25;;;;;18.71;100.00;100806.91;5075785;27;45391;-66
2022/05/20 09:24:07;;;;;;;;;35.50;31.75;;;;;18.80;100.00;100806.25;5075223;28;45307;-65
2022/05/20 09:26:45;;;;;;;;;35.00;31.25;;;;;18.94;100.00;100794.59;5078270;27;45894;-67
2022/05/20 09:29:29;;;;;;;;;38.50;35.00;;;;;19.19;100.00;100776.00;5073852;28;45335;-66
2022/05/20 09:32:02;;;;;;;;;41.25;33.75;;;;;19.50;100.00;100761.22;5075667;27;45218;-67
2022/05/20 09:34:27;;;;;;;;;39.50;35.00;;;;;19.76;100.00;100761.09;5077352;27;45993;-66
2022/05/20 09:37:00;;;;;;;;;39.75;34.50;;;;;19.67;100.00;100775.97;5076910;28;45334;-66
2022/05/20 09:39:42;;;;;;;;;28.00;27.00;;;;;19.60;100.00;100837.91;5076138;27;45339;-68
2022/05/20 09:42:15;;;;;;;;;33.75;29.00;;;;;19.44;100.00;100964.41;5078447;27;45373;-67
2022/05/20 09:44:44;;;;;;;;;34.75;30.00;;;;;19.11;100.00;100990.72;5074801;28;46211;-67
2022/05/20 09:47:23;;;;;;;;;29.75;28.00;;;;;18.96;100.00;100909.97;5076238;27;45486;-68
2022/05/20 09:49:54;;;;;;;;;35.25;30.00;;;;;18.77;100.00;100718.53;5075378;27;44736;-66
2022/05/20 09:52:25;;;;;;;;;38.00;33.25;;;;;18.79;100.00;100623.34;5075866;27;45336;-67
2022/05/20 09:55:00;;;;;;;;;46.00;38.50;;;;;19.09;100.00;100701.16;5074570;28;45283;-67
2022/05/20 09:57:36;;;;;;;;;33.00;31.75;;;;;19.30;100.00;100760.06;5074188;27;45346;-67
2022/05/20 10:00:26;;;;;;;;;31.00;29.50;;;;;19.46;100.00;100737.56;5075159;28;45552;-68
2022/05/20 10:03:14;;;;;;;;;33.25;31.25;;;;;19.78;100.00;100713.78;5074742;27;45389;-70
2022/05/20 10:05:55;;;;;;;;;36.75;32.50;;;;;19.98;100.00;100708.75;5077991;27;45412;-68
2022/05/20 10:08:41;;;;;;;;;39.00;34.00;;;;;20.31;100.00;100699.03;5078008;27;45450;-68
2022/05/20 10:11:24;;;;;;;;;40.25;33.50;;;;;20.66;100.00;100706.03;5078671;27;45332;-70
2022/05/20 10:14:11;;;;;;;;;50.75;40.75;;;;;21.02;100.00;100708.53;5078683;27;45629;-69
2022/05/20 10:17:25;;;;;;;;;42.75;37.25;;;;;21.31;100.00;100705.25;5077317;28;48327;-69
2022/05/20 10:20:14;;;;;;;;;37.00;33.00;;;;;21.36;100.00;100715.56;5055327;27;45370;-69
2022/05/20 10:22:45;;;;;;;;;39.50;33.25;;;;;21.40;100.00;100727.72;5077377;28;45268;-68
2022/05/20 10:25:25;;;;;;;;;37.25;32.00;;;;;21.46;100.00;100737.88;5079756;27;45418;-68
2022/05/20 10:28:12;;;;;;;;;40.75;34.00;;;;;21.52;100.00;100765.97;5078970;27;45610;-69
2022/05/20 10:33:33;;;;;;;;;43.25;35.50;;;;;21.47;100.00;100752.97;5080122;28;45419;-68
2022/05/20 10:36:23;;;;;;;;;41.00;36.00;;;;;21.55;100.00;100755.03;5078308;27;45578;-69
2022/05/20 10:38:57;;;;;;;;;40.00;34.25;;;;;21.60;100.00;100734.06;5078613;27;45190;-70
2022/05/20 10:41:41;;;;;;;;;43.50;37.00;;;;;21.79;100.00;100738.75;5078280;27;45236;-68
2022/05/20 10:50:38;;;;;;;;;41.75;36.25;;;;;22.39;100.00;100699.69;5077630;28;45783;-68
2022/05/20 10:53:10;;;;;;;;;44.25;36.50;;;;;22.71;100.00;100698.66;5060235;28;45281;-67
2022/05/20 10:56:09;;;;;;;;;41.75;35.75;;;;;22.86;100.00;100667.78;5077512;27;45414;-68
2022/05/20 10:59:03;;;;;;;;;45.00;37.50;;;;;23.07;100.00;100690.94;5078028;27;45400;-67
2022/05/20 11:01:35;;;;;;;;;42.50;35.50;;;;;23.17;97.02;100713.25;5070648;28;46323;-68
2022/05/20 11:04:24;;;;;;;;;38.50;32.75;;;;;23.26;96.95;100719.66;5082057;27;45183;-68
2022/05/20 11:07:14;;;;;;;;;41.25;36.00;;;;;23.37;94.82;100724.03;5079689;27;45208;-67
2022/05/20 11:09:42;;;;;;;;;43.00;37.00;;;;;23.53;94.99;100727.97;5078411;27;45384;-67
2022/05/20 11:12:26;;;;;;;;;49.75;37.50;;;;;23.77;95.98;100727.50;5079114;27;45270;-70
2022/05/20 11:15:04;;;;;;;;;48.50;39.00;;;;;24.10;93.43;100754.03;5076765;28;45357;-69
2022/05/20 11:17:49;;;;;;;;;44.50;35.75;;;;;24.24;91.17;100760.78;5077712;27;45248;-68
2022/05/20 11:20:39;;;;;;;;;41.25;35.00;;;;;24.33;89.95;100767.97;5078041;27;45443;-68
2022/05/20 11:23:26;;;;;;;;;39.75;31.75;;;;;24.32;89.68;100785.91;5076858;28;46965;-68
2022/05/20 11:26:07;;;;;;;;;50.25;40.50;;;;;24.33;89.79;100793.00;5077996;27;45282;-69
2022/05/20 11:29:00;;;;;;;;;45.75;38.50;;;;;24.29;89.87;100796.13;5078050;27;45443;-67
2022/05/20 11:31:32;;;;;;;;;41.75;34.75;;;;;24.28;89.04;100803.34;5077994;27;45340;-68
2022/05/20 11:34:11;;;;;;;;;40.00;33.75;;;;;24.31;88.51;100803.03;5078193;27;45396;-69
2022/05/20 11:36:57;;;;;;;;;44.00;36.50;;;;;24.45;88.97;100806.28;5079053;27;45470;-68
2022/05/20 11:39:40;;;;;;;;;37.25;31.50;;;;;24.68;88.68;100790.59;5078733;27;45493;-69
2022/05/20 11:42:35;;;;;;;;;37.25;30.75;;;;;24.98;87.97;100785.09;5078166;28;45292;-68
2022/05/20 11:45:19;;;;;;;;;34.00;30.50;;;;;25.28;86.73;100788.41;5079117;27;46238;-68
2022/05/20 11:47:52;;;;;;;;;32.00;29.00;;;;;25.48;85.27;100781.94;5077253;28;45294;-67
2022/05/20 11:50:40;;;;;;;;;31.00;28.75;;;;;25.64;84.48;100780.38;5077031;27;45275;-68
2022/05/20 11:53:18;;;;;;;;;30.00;28.50;;;;;25.79;85.34;100759.94;5079201;27;45252;-68
2022/05/20 11:55:52;;;;;;;;;44.00;35.50;;;;;25.91;84.46;100740.81;5077864;27;45724;-68
2022/05/20 11:58:28;;;;;;;;;23.75;22.25;;;;;26.29;82.55;100752.19;5079168;27;45952;-68
2022/05/20 12:00:54;;;;;;;;;30.00;27.00;;;;;26.48;82.21;100747.53;5078607;28;45396;-69
2022/05/20 12:03:26;;;;;;;;;16.50;14.75;;;;;26.59;79.82;100731.09;5079122;27;45280;-67